createdAt,value
2023-03-17T00:01:18.734Z,4.09
2023-03-17T00:03:47.402Z,3.97
2023-03-17T00:06:13.849Z,4.02
2023-03-17T00:08:41.574Z,3.80
2023-03-17T00:11:09.145Z,4.04
2023-03-17T00:13:35.738Z,4.10
2023-03-17T00:16:04.412Z,4.26
2023-03-17T00:18:31.943Z,4.08
2023-03-17T00:21:00.534Z,4.24
2023-03-17T00:23:27.121Z,3.94
2023-03-17T00:25:53.710Z,3.92
2023-03-17T00:28:21.297Z,3.48
2023-03-17T00:30:47.875Z,3.09
2023-03-17T00:33:15.464Z,2.80
2023-03-17T00:35:42.064Z,2.89
2023-03-17T00:38:08.645Z,3.36
2023-03-17T00:40:36.252Z,3.94
2023-03-17T00:43:03.835Z,4.03
2023-03-17T00:45:30.441Z,4.13
2023-03-17T00:47:56.879Z,4.39
2023-03-17T00:50:23.617Z,4.21
2023-03-17T00:52:51.214Z,4.01
2023-03-17T00:55:17.605Z,4.16
2023-03-17T00:57:44.034Z,4.25
2023-03-17T01:00:10.430Z,4.24
2023-03-17T01:02:36.840Z,3.98
2023-03-17T01:05:06.690Z,3.69
2023-03-17T01:07:33.961Z,4.11
2023-03-17T01:10:00.535Z,4.66
2023-03-17T01:12:29.136Z,4.79
2023-03-17T01:14:56.745Z,4.55
2023-03-17T01:17:24.330Z,4.66
2023-03-17T01:19:50.933Z,4.67
2023-03-17T01:22:17.524Z,4.92
2023-03-17T01:24:46.123Z,4.74
2023-03-17T01:27:12.715Z,4.37
2023-03-17T01:29:41.308Z,4.28
2023-03-17T01:32:07.889Z,4.44
2023-03-17T01:34:34.322Z,4.49
2023-03-17T01:37:00.739Z,4.20
2023-03-17T01:39:28.694Z,4.38
2023-03-17T01:41:56.273Z,4.09
2023-03-17T01:44:23.875Z,3.63
2023-03-17T01:46:50.321Z,3.55
2023-03-17T01:49:16.787Z,3.48
2023-03-17T01:51:43.213Z,3.73
2023-03-17T01:54:09.674Z,3.93
2023-03-17T01:56:36.095Z,3.80
2023-03-17T01:59:03.427Z,4.37
2023-03-17T02:01:31.048Z,5.43
2023-03-17T02:03:58.654Z,6.37
2023-03-17T02:06:26.228Z,7.07
2023-03-17T02:08:52.693Z,6.68
2023-03-17T02:11:19.129Z,6.67
2023-03-17T02:13:45.584Z,6.80
2023-03-17T02:16:12.612Z,6.86
2023-03-17T02:18:40.208Z,7.29
2023-03-17T02:21:06.650Z,6.93
2023-03-17T02:23:33.078Z,6.70
2023-03-17T02:25:59.530Z,6.65
2023-03-17T02:28:27.598Z,6.67
2023-03-17T02:30:54.241Z,6.71
2023-03-17T02:33:21.818Z,6.85
2023-03-17T02:35:49.449Z,6.72
2023-03-17T02:38:17.005Z,7.11
2023-03-17T02:40:43.594Z,7.84
2023-03-17T02:43:11.184Z,8.08
2023-03-17T02:45:39.790Z,12.41
2023-03-17T02:48:08.382Z,9.47
2023-03-17T02:50:35.998Z,10.09
2023-03-17T02:53:03.577Z,9.66
2023-03-17T02:55:30.224Z,9.66
2023-03-17T02:57:57.758Z,10.15
2023-03-17T03:00:25.357Z,8.12
2023-03-17T03:02:52.029Z,8.06
2023-03-17T03:05:18.918Z,7.90
2023-03-17T03:07:45.370Z,8.04
2023-03-17T03:10:12.829Z,7.84
2023-03-17T03:12:40.345Z,7.61
2023-03-17T03:15:07.911Z,7.05
2023-03-17T03:17:34.361Z,6.89
2023-03-17T03:20:00.801Z,6.68
2023-03-17T03:22:27.238Z,6.27
2023-03-17T03:24:54.255Z,6.31
2023-03-17T03:27:20.895Z,6.68
2023-03-17T03:29:48.439Z,5.81
2023-03-17T03:32:15.017Z,6.25
2023-03-17T03:34:41.861Z,6.53
2023-03-17T03:37:08.276Z,6.18
2023-03-17T03:39:35.822Z,6.77
2023-03-17T03:42:02.540Z,6.80
2023-03-17T03:44:30.121Z,6.52
2023-03-17T03:46:58.708Z,5.83
2023-03-17T03:49:25.308Z,5.70
2023-03-17T03:51:51.740Z,5.94
2023-03-17T03:54:18.478Z,6.00
2023-03-17T03:56:45.071Z,6.12
2023-03-17T03:59:11.480Z,5.95
2023-03-17T04:01:38.266Z,6.23
2023-03-17T04:04:04.865Z,6.00
2023-03-17T04:06:31.455Z,5.91
2023-03-17T04:08:58.505Z,6.03
2023-03-17T04:11:26.605Z,5.88
2023-03-17T04:13:53.285Z,8.84
2023-03-17T04:16:21.877Z,90.15
2023-03-17T04:18:48.357Z,51.77
2023-03-17T04:21:14.841Z,39.70
2023-03-17T04:23:41.266Z,19.61
2023-03-17T04:26:07.738Z,12.62
2023-03-17T04:28:34.153Z,11.10
2023-03-17T04:31:00.600Z,9.83
2023-03-17T04:33:28.017Z,8.61
2023-03-17T04:35:54.912Z,7.78
2023-03-17T04:38:22.180Z,7.87
2023-03-17T04:40:49.771Z,7.47
2023-03-17T04:43:16.163Z,7.28
2023-03-17T04:45:43.013Z,7.48
2023-03-17T04:48:09.601Z,6.76
2023-03-17T04:50:36.173Z,6.71
2023-03-17T04:53:03.793Z,6.34
2023-03-17T04:55:30.173Z,6.57
2023-03-17T04:57:56.591Z,5.74
2023-03-17T05:00:23.582Z,5.63
2023-03-17T05:02:50.184Z,6.06
2023-03-17T05:05:16.614Z,6.48
2023-03-17T05:07:43.362Z,6.97
2023-03-17T05:10:11.966Z,7.57
2023-03-17T05:12:38.403Z,7.55
2023-03-17T05:15:04.784Z,7.60
2023-03-17T05:17:31.728Z,6.82
2023-03-17T05:19:58.163Z,7.18
2023-03-17T05:22:24.904Z,8.06
2023-03-17T05:24:51.498Z,7.67
2023-03-17T05:27:18.081Z,7.84
2023-03-17T05:29:44.519Z,7.49
2023-03-17T05:32:10.938Z,6.61
2023-03-17T05:34:37.370Z,8.29
2023-03-17T05:37:03.760Z,9.88
2023-03-17T05:39:30.218Z,10.84
2023-03-17T05:41:57.650Z,18.48
2023-03-17T05:44:24.069Z,15.67
2023-03-17T05:46:50.483Z,10.14
2023-03-17T05:49:16.874Z,8.20
2023-03-17T05:51:43.302Z,8.32
2023-03-17T05:54:09.757Z,8.05
2023-03-17T05:56:36.153Z,7.71
2023-03-17T05:59:02.574Z,7.57
2023-03-17T06:01:28.991Z,7.19
2023-03-17T06:03:57.100Z,7.26
2023-03-17T06:06:24.746Z,7.15
2023-03-17T06:08:51.200Z,7.23
2023-03-17T06:11:17.789Z,7.92
2023-03-17T06:13:44.549Z,8.09
2023-03-17T06:16:11.181Z,7.92
2023-03-17T06:18:38.778Z,7.71
2023-03-17T06:21:05.401Z,7.90
2023-03-17T06:23:31.911Z,7.53
2023-03-17T06:25:58.486Z,7.80
2023-03-17T06:28:24.952Z,8.25
2023-03-17T06:30:52.141Z,7.95
2023-03-17T06:33:18.978Z,8.60
2023-03-17T06:35:45.409Z,10.25
2023-03-17T06:38:12.882Z,9.58
2023-03-17T06:40:39.541Z,9.93
2023-03-17T06:43:07.160Z,10.16
2023-03-17T06:45:33.796Z,9.91
2023-03-17T06:48:01.335Z,9.83
2023-03-17T06:50:27.915Z,10.24
2023-03-17T06:52:54.309Z,9.33
2023-03-17T06:55:20.753Z,8.29
2023-03-17T06:57:49.159Z,8.52
2023-03-17T07:00:17.327Z,7.51
2023-03-17T07:02:43.728Z,7.19
2023-03-17T07:05:10.122Z,7.68
2023-03-17T07:07:36.539Z,7.77
2023-03-17T07:10:03.801Z,8.59
2023-03-17T07:12:30.411Z,7.71
2023-03-17T07:14:56.828Z,7.57
2023-03-17T07:17:23.279Z,8.62
2023-03-17T07:19:49.697Z,9.23
2023-03-17T07:22:16.770Z,9.17
2023-03-17T07:24:43.328Z,9.64
2023-03-17T07:27:09.789Z,9.71
2023-03-17T07:29:36.249Z,10.11
2023-03-17T07:32:03.101Z,9.69
2023-03-17T07:34:29.532Z,9.46
2023-03-17T07:36:58.690Z,9.59
2023-03-17T07:39:25.120Z,9.81
2023-03-17T07:41:51.542Z,10.12
2023-03-17T07:44:17.988Z,9.61
2023-03-17T07:46:44.423Z,9.91
2023-03-17T07:49:11.251Z,10.26
2023-03-17T07:51:38.862Z,10.67
2023-03-17T07:54:05.437Z,10.69
2023-03-17T07:56:31.860Z,10.16
2023-03-17T07:58:58.647Z,10.55
2023-03-17T08:01:25.243Z,10.38
2023-03-17T08:03:51.707Z,10.19
2023-03-17T08:06:18.144Z,10.21
2023-03-17T08:08:44.544Z,10.11
2023-03-17T08:11:10.977Z,10.32
2023-03-17T08:13:37.395Z,10.39
2023-03-17T08:16:03.849Z,10.34
2023-03-17T08:18:30.277Z,10.01
2023-03-17T08:20:56.721Z,9.50
2023-03-17T08:23:23.217Z,9.50
2023-03-17T08:25:49.631Z,9.63
2023-03-17T08:28:16.716Z,9.66
2023-03-17T08:30:43.234Z,9.54
2023-03-17T08:33:09.929Z,10.16
2023-03-17T08:35:37.534Z,9.75
2023-03-17T08:38:03.969Z,8.88
2023-03-17T08:40:30.666Z,8.45
2023-03-17T08:42:57.349Z,8.58
2023-03-17T08:45:23.766Z,8.24
2023-03-17T08:47:50.164Z,8.34
2023-03-17T08:50:16.585Z,8.46
2023-03-17T08:52:43.026Z,8.76
2023-03-17T08:55:09.453Z,9.19
2023-03-17T08:57:36.909Z,8.90
2023-03-17T09:00:03.534Z,9.36
2023-03-17T09:02:30.172Z,9.15
2023-03-17T09:04:56.658Z,8.88
2023-03-17T09:07:23.418Z,9.48
2023-03-17T09:09:52.493Z,9.02
2023-03-17T09:12:18.960Z,9.43
2023-03-17T09:14:46.890Z,9.38
2023-03-17T09:17:14.567Z,8.93
2023-03-17T09:19:41.037Z,9.16
2023-03-17T09:22:07.605Z,9.44
2023-03-17T09:24:34.084Z,9.08
2023-03-17T09:27:00.815Z,8.84
2023-03-17T09:29:27.691Z,9.10
2023-03-17T09:31:54.401Z,8.95
2023-03-17T09:34:21.932Z,9.42
2023-03-17T09:36:48.408Z,9.07
2023-03-17T09:39:15.105Z,8.82
2023-03-17T09:41:41.513Z,8.98
2023-03-17T09:44:08.280Z,8.84
2023-03-17T09:46:34.918Z,8.54
2023-03-17T09:49:02.467Z,8.53
2023-03-17T09:51:29.058Z,8.08
2023-03-17T09:53:55.479Z,8.05
2023-03-17T09:56:21.890Z,8.33
2023-03-17T09:58:51.126Z,8.74
2023-03-17T10:01:18.486Z,8.85
2023-03-17T10:03:44.982Z,8.85
2023-03-17T10:06:13.306Z,8.82
2023-03-17T10:08:40.198Z,8.13
2023-03-17T10:11:06.638Z,8.44
2023-03-17T10:13:33.055Z,8.59
2023-03-17T10:15:59.490Z,8.83
2023-03-17T10:18:25.939Z,8.75
2023-03-17T10:20:52.353Z,8.81
2023-03-17T10:23:18.733Z,8.85
2023-03-17T10:25:46.310Z,8.68
2023-03-17T10:28:12.948Z,8.96
2023-03-17T10:30:40.517Z,8.65
2023-03-17T10:33:07.394Z,8.63
2023-03-17T10:35:34.009Z,8.71
2023-03-17T10:38:13.930Z,8.86
2023-03-17T10:40:40.951Z,7.95
2023-03-17T10:43:07.365Z,8.25
2023-03-17T10:45:33.840Z,9.20
2023-03-17T10:48:00.716Z,8.98
2023-03-17T10:50:27.310Z,9.38
2023-03-17T10:52:53.902Z,8.62
2023-03-17T10:55:20.796Z,9.21
2023-03-17T10:57:47.327Z,8.85
2023-03-17T11:00:13.743Z,8.97
2023-03-17T11:02:41.284Z,8.21
2023-03-17T11:05:08.832Z,8.19
2023-03-17T11:07:40.886Z,9.10
2023-03-17T11:10:07.465Z,8.67
2023-03-17T11:12:34.656Z,7.64
2023-03-17T11:15:02.250Z,5.88
2023-03-17T11:17:29.841Z,5.07
2023-03-17T11:19:57.455Z,4.62
2023-03-17T11:22:25.039Z,4.59
2023-03-17T11:24:51.480Z,4.59
2023-03-17T11:27:17.906Z,4.34
2023-03-17T11:29:44.291Z,4.03
2023-03-17T11:32:10.705Z,5.27
2023-03-17T11:34:37.169Z,5.03
2023-03-17T11:37:03.625Z,5.09
2023-03-17T11:39:32.177Z,4.63
2023-03-17T11:41:59.763Z,4.34
2023-03-17T11:44:27.374Z,4.14
2023-03-17T11:46:53.775Z,4.09
2023-03-17T11:49:20.537Z,4.43
2023-03-17T11:51:47.365Z,3.67
2023-03-17T11:54:14.719Z,3.81
2023-03-17T11:56:42.308Z,3.88
2023-03-17T11:59:08.733Z,4.09
2023-03-17T12:01:35.115Z,4.22
2023-03-17T12:04:02.176Z,4.26
2023-03-17T12:06:29.670Z,3.87
2023-03-17T12:08:56.102Z,3.93
2023-03-17T12:11:22.838Z,3.70
2023-03-17T12:13:49.744Z,3.83
2023-03-17T12:16:17.066Z,4.07
2023-03-17T12:18:44.634Z,4.23
2023-03-17T12:21:12.216Z,4.14
2023-03-17T12:23:38.804Z,3.98
2023-03-17T12:26:05.424Z,3.98
2023-03-17T12:28:32.245Z,4.04
2023-03-17T12:30:58.684Z,4.08
2023-03-17T12:33:25.114Z,4.25
2023-03-17T12:35:52.777Z,3.94
2023-03-17T12:38:20.336Z,4.14
2023-03-17T12:40:47.931Z,4.19
2023-03-17T12:43:14.504Z,4.03
2023-03-17T12:45:41.010Z,4.01
2023-03-17T12:48:07.463Z,4.17
2023-03-17T12:50:34.252Z,4.30
2023-03-17T12:53:01.075Z,4.13
2023-03-17T12:55:29.586Z,3.80
2023-03-17T12:57:57.038Z,3.62
2023-03-17T13:00:24.667Z,3.37
2023-03-17T13:02:51.165Z,3.83
2023-03-17T13:05:17.696Z,3.66
2023-03-17T13:07:44.419Z,3.30
2023-03-17T13:10:13.045Z,3.30
2023-03-17T13:12:40.609Z,3.41
2023-03-17T13:15:07.197Z,3.49
2023-03-17T13:17:33.815Z,7.39
2023-03-17T13:20:00.504Z,3.93
2023-03-17T13:22:29.104Z,3.55
2023-03-17T13:24:56.717Z,3.52
2023-03-17T13:27:23.496Z,3.73
2023-03-17T13:29:50.971Z,3.99
2023-03-17T13:32:18.462Z,3.93
2023-03-17T13:34:46.047Z,10.89
2023-03-17T13:37:12.639Z,41.13
2023-03-17T13:39:39.246Z,3.93
2023-03-17T13:42:17.237Z,4.17
2023-03-17T13:44:44.259Z,5.69
2023-03-17T13:47:10.693Z,4.18
2023-03-17T13:49:37.619Z,3.91
2023-03-17T13:52:05.218Z,3.82
2023-03-17T13:54:32.823Z,3.51
2023-03-17T13:57:00.409Z,3.59
2023-03-17T13:59:27.996Z,3.58
2023-03-17T14:01:56.579Z,3.67
2023-03-17T14:04:24.234Z,3.81
2023-03-17T14:06:52.794Z,3.91
2023-03-17T14:09:19.410Z,3.59
2023-03-17T14:11:47.969Z,3.59
2023-03-17T14:14:26.027Z,3.52
2023-03-17T14:17:00.329Z,3.49
2023-03-17T14:19:26.933Z,3.51
2023-03-17T14:21:53.516Z,3.53
2023-03-17T14:24:20.140Z,3.59
2023-03-17T14:26:46.735Z,3.87
2023-03-17T14:29:13.405Z,3.94
2023-03-17T14:31:40.099Z,3.98
2023-03-17T14:34:08.045Z,3.56
2023-03-17T14:36:35.252Z,3.70
2023-03-17T14:39:01.848Z,3.49
2023-03-17T14:41:28.430Z,3.57
2023-03-17T14:43:55.003Z,3.98
2023-03-17T14:46:22.672Z,3.77
2023-03-17T14:48:50.205Z,3.65
2023-03-17T14:51:17.896Z,3.52
2023-03-17T14:53:45.687Z,3.33
2023-03-17T14:56:12.695Z,3.50
2023-03-17T14:58:41.027Z,3.75
2023-03-17T15:01:07.674Z,3.70
2023-03-17T15:03:34.333Z,3.66
2023-03-17T15:06:01.973Z,3.55
2023-03-17T15:08:29.099Z,3.53
2023-03-17T15:10:56.304Z,3.65
2023-03-17T15:13:24.034Z,3.81
2023-03-17T15:15:51.606Z,4.02
2023-03-17T15:18:18.249Z,4.17
2023-03-17T15:20:45.124Z,3.56
2023-03-17T15:23:12.651Z,3.50
2023-03-17T15:25:39.517Z,3.87
2023-03-17T15:28:06.085Z,3.60
2023-03-17T15:30:46.270Z,3.35
2023-03-17T15:33:14.262Z,3.73
2023-03-17T15:35:45.985Z,3.56
2023-03-17T15:38:14.615Z,3.45
2023-03-17T15:40:41.261Z,3.27
2023-03-17T15:43:08.856Z,3.33
2023-03-17T15:45:37.570Z,3.53
2023-03-17T15:48:05.182Z,3.39
2023-03-17T15:50:31.920Z,3.69
2023-03-17T15:52:59.390Z,4.29
2023-03-17T15:55:28.413Z,3.97
2023-03-17T15:57:55.878Z,3.67
2023-03-17T16:00:26.666Z,3.52
2023-03-17T16:02:53.298Z,3.43
2023-03-17T16:05:20.062Z,3.44
2023-03-17T16:07:47.663Z,3.61
2023-03-17T16:10:14.556Z,3.61
2023-03-17T16:12:42.099Z,3.56
2023-03-17T16:15:20.291Z,3.86
2023-03-17T16:17:49.680Z,4.85
2023-03-17T16:20:17.666Z,28.81
2023-03-17T16:22:45.437Z,7.81
2023-03-17T16:25:12.441Z,5.07
2023-03-17T16:27:39.693Z,4.47
2023-03-17T16:30:06.578Z,3.98
2023-03-17T16:32:33.128Z,4.11
2023-03-17T16:34:59.639Z,3.93
2023-03-17T16:37:26.112Z,3.88
2023-03-17T16:39:52.680Z,4.86
2023-03-17T16:42:19.168Z,15.82
2023-03-17T16:44:45.701Z,5.90
2023-03-17T16:47:12.197Z,5.79
2023-03-17T16:49:39.399Z,9.11
2023-03-17T16:52:05.990Z,8.66
2023-03-17T16:54:32.840Z,6.83
2023-03-17T16:56:59.293Z,5.65
2023-03-17T16:59:26.806Z,5.90
2023-03-17T17:01:54.504Z,5.53
2023-03-17T17:04:22.039Z,5.98
2023-03-17T17:06:49.685Z,6.33
2023-03-17T17:09:17.433Z,6.35
2023-03-17T17:11:44.239Z,6.05
2023-03-17T17:14:11.201Z,9.09
2023-03-17T17:16:37.781Z,17.04
2023-03-17T17:19:04.303Z,17.49
2023-03-17T17:21:30.806Z,26.93
2023-03-17T17:23:57.334Z,22.83
2023-03-17T17:26:25.086Z,8.26
2023-03-17T17:28:51.810Z,7.49
2023-03-17T17:31:19.637Z,9.46
2023-03-17T17:33:46.435Z,8.56
2023-03-17T17:36:13.222Z,7.55
2023-03-17T17:38:40.782Z,6.95
2023-03-17T17:41:07.448Z,9.86
2023-03-17T17:43:35.066Z,7.54
2023-03-17T17:46:01.803Z,6.51
2023-03-17T17:48:29.634Z,5.59
2023-03-17T17:50:56.518Z,5.20
2023-03-17T17:53:23.901Z,4.90
2023-03-17T17:55:50.359Z,4.97
2023-03-17T17:58:17.149Z,5.05
2023-03-17T18:00:43.715Z,5.24
2023-03-17T18:03:10.188Z,5.64
2023-03-17T18:05:36.998Z,5.67
2023-03-17T18:08:03.657Z,5.21
2023-03-17T18:10:30.611Z,4.39
2023-03-17T18:12:57.198Z,4.37
2023-03-17T18:15:23.627Z,4.77
2023-03-17T18:17:50.041Z,4.24
2023-03-17T18:20:16.532Z,3.70
2023-03-17T18:22:43.581Z,3.42
2023-03-17T18:25:11.173Z,3.93
2023-03-17T18:27:37.807Z,3.80
2023-03-17T18:30:06.401Z,3.79
2023-03-17T18:32:33.031Z,4.17
2023-03-17T18:34:59.699Z,3.84
2023-03-17T18:37:26.355Z,4.06
2023-03-17T18:40:11.626Z,4.05
2023-03-17T18:42:39.712Z,4.18
2023-03-17T18:45:07.376Z,4.27
2023-03-17T18:47:33.836Z,4.49
2023-03-17T18:50:00.591Z,5.30
2023-03-17T18:52:28.182Z,6.66
2023-03-17T18:54:54.885Z,6.31
2023-03-17T18:57:21.514Z,5.61
2023-03-17T18:59:47.984Z,5.42
2023-03-17T19:02:15.040Z,5.49
2023-03-17T19:04:41.816Z,5.61
2023-03-17T19:07:09.511Z,5.93
2023-03-17T19:09:36.210Z,7.60
2023-03-17T19:12:03.059Z,3.88
2023-03-17T19:14:29.601Z,3.19
2023-03-17T19:16:56.352Z,3.19
2023-03-17T19:19:24.050Z,2.97
2023-03-17T19:21:50.871Z,2.65
2023-03-17T19:24:18.332Z,3.03
2023-03-17T19:26:45.054Z,2.87
2023-03-17T19:29:12.083Z,3.03
2023-03-17T19:31:39.739Z,3.23
2023-03-17T19:34:06.255Z,3.68
2023-03-17T19:36:32.712Z,3.87
2023-03-17T19:38:59.158Z,3.84
2023-03-17T19:41:25.603Z,4.08
2023-03-17T19:43:52.103Z,4.16
2023-03-17T19:46:19.165Z,3.91
2023-03-17T19:48:46.013Z,3.53
2023-03-17T19:51:12.493Z,3.73
2023-03-17T19:53:38.966Z,3.92
2023-03-17T19:56:05.971Z,3.67
2023-03-17T19:58:33.619Z,4.74
2023-03-17T20:01:00.340Z,3.68
2023-03-17T20:03:27.223Z,3.14
2023-03-17T20:05:53.691Z,2.75
2023-03-17T20:08:20.600Z,2.91
2023-03-17T20:10:48.199Z,2.87
2023-03-17T20:13:15.829Z,3.20
2023-03-17T20:15:43.452Z,4.32
2023-03-17T20:18:10.991Z,3.11
2023-03-17T20:20:38.117Z,3.16
2023-03-17T20:23:04.525Z,3.20
2023-03-17T20:25:30.993Z,2.55
2023-03-17T20:27:57.427Z,2.51
2023-03-17T20:30:23.890Z,2.48
2023-03-17T20:32:52.116Z,2.57
2023-03-17T20:35:19.657Z,2.32
2023-03-17T20:37:48.265Z,3.31
2023-03-17T20:40:16.104Z,5.25
2023-03-17T20:42:42.517Z,3.79
2023-03-17T20:45:09.031Z,3.08
2023-03-17T20:47:35.459Z,2.53
2023-03-17T20:50:02.494Z,2.42
2023-03-17T20:52:30.209Z,2.40
2023-03-17T20:54:56.840Z,2.64
2023-03-17T20:57:23.289Z,2.20
2023-03-17T20:59:49.726Z,2.67
2023-03-17T21:02:16.147Z,2.65
2023-03-17T21:04:43.079Z,2.86
2023-03-17T21:07:10.645Z,2.69
2023-03-17T21:09:37.356Z,2.97
2023-03-17T21:12:03.789Z,3.07
2023-03-17T21:14:30.232Z,3.07
2023-03-17T21:16:57.137Z,3.50
2023-03-17T21:19:24.722Z,4.18
2023-03-17T21:21:52.413Z,3.87
2023-03-17T21:24:18.987Z,3.20
2023-03-17T21:26:45.422Z,2.44
2023-03-17T21:29:12.200Z,2.61
2023-03-17T21:31:38.827Z,2.48
2023-03-17T21:34:06.336Z,2.45
2023-03-17T21:36:33.930Z,2.57
2023-03-17T21:39:01.540Z,2.61
2023-03-17T21:41:30.109Z,2.64
2023-03-17T21:43:57.733Z,2.76
2023-03-17T21:46:25.291Z,2.51
2023-03-17T21:48:51.886Z,2.55
2023-03-17T21:51:18.379Z,2.69
2023-03-17T21:53:44.852Z,2.73
2023-03-17T21:56:12.613Z,3.04
2023-03-17T21:58:39.371Z,2.79
2023-03-17T22:01:07.024Z,3.17
2023-03-17T22:03:33.555Z,3.43
2023-03-17T22:06:00.023Z,3.34
2023-03-17T22:08:27.850Z,3.27
2023-03-17T22:10:56.398Z,3.44
2023-03-17T22:13:23.061Z,3.49
2023-03-17T22:15:49.501Z,3.66
2023-03-17T22:18:15.976Z,3.73
2023-03-17T22:20:42.399Z,3.96
2023-03-17T22:23:08.846Z,3.70
2023-03-17T22:25:36.172Z,4.02
2023-03-17T22:28:03.811Z,4.24
2023-03-17T22:30:31.722Z,3.96
2023-03-17T22:32:59.077Z,3.73
2023-03-17T22:35:25.565Z,3.67
2023-03-17T22:37:52.029Z,3.27
2023-03-17T22:40:18.449Z,3.08
2023-03-17T22:42:44.938Z,3.09
2023-03-17T22:45:13.076Z,2.94
2023-03-17T22:47:39.721Z,2.71
2023-03-17T22:50:07.241Z,2.69
2023-03-17T22:52:34.816Z,2.67
2023-03-17T22:55:01.420Z,2.63
2023-03-17T22:57:28.999Z,2.64
2023-03-17T22:59:57.597Z,2.60
2023-03-17T23:02:24.191Z,2.52
2023-03-17T23:04:50.852Z,2.48
2023-03-17T23:07:18.455Z,2.62
2023-03-17T23:09:46.044Z,2.64
2023-03-17T23:12:13.629Z,2.60
2023-03-17T23:14:42.229Z,2.47
2023-03-17T23:17:10.978Z,2.39
2023-03-17T23:19:38.436Z,2.34
2023-03-17T23:22:07.036Z,2.71
2023-03-17T23:24:34.649Z,2.51
2023-03-17T23:27:02.256Z,2.46
2023-03-17T23:29:29.817Z,2.65
2023-03-17T23:31:56.297Z,2.90
2023-03-17T23:34:23.006Z,2.84
2023-03-17T23:36:50.590Z,2.92
2023-03-17T23:39:17.074Z,2.94
2023-03-17T23:41:43.511Z,2.95
2023-03-17T23:44:09.961Z,2.87
2023-03-17T23:46:36.406Z,2.75
2023-03-17T23:49:03.514Z,3.02
2023-03-17T23:51:31.116Z,3.16
2023-03-17T23:53:57.690Z,3.05
2023-03-17T23:56:24.270Z,3.05
2023-03-17T23:58:51.887Z,3.03
